sensor_id;sensor_type;location;lat;lon;timestamp;pressure;altitude;pressure_sealevel;temperature;humidity
967;BME280;56108;48.730;9.304;2023-07-31T00:01:01;97624.09;;;14.08;100.00
967;BME280;56108;48.730;9.304;2023-07-31T00:03:09;97629.81;;;14.04;100.00
967;BME280;56108;48.730;9.304;2023-07-31T00:05:17;97627.81;;;13.96;100.00
967;BME280;56108;48.730;9.304;2023-07-31T00:07:27;97626.34;;;13.92;100.00
967;BME280;56108;48.730;9.304;2023-07-31T00:09:36;97625.50;;;13.92;100.00
967;BME280;56108;48.730;9.304;2023-07-31T00:11:44;97624.38;;;14.05;100.00
967;BME280;56108;48.730;9.304;2023-07-31T00:13:53;97618.47;;;13.91;100.00
967;BME280;56108;48.730;9.304;2023-07-31T00:16:01;97622.72;;;13.82;100.00
967;BME280;56108;48.730;9.304;2023-07-31T00:18:09;97623.47;;;13.73;100.00
967;BME280;56108;48.730;9.304;2023-07-31T00:20:17;97617.78;;;13.66;100.00
967;BME280;56108;48.730;9.304;2023-07-31T00:22:28;97610.50;;;13.57;100.00
967;BME280;56108;48.730;9.304;2023-07-31T00:24:36;97614.94;;;13.47;100.00
967;BME280;56108;48.730;9.304;2023-07-31T00:26:44;97612.16;;;13.37;100.00
967;BME280;56108;48.730;9.304;2023-07-31T00:28:52;97618.69;;;13.33;100.00
967;BME280;56108;48.730;9.304;2023-07-31T00:31:00;97615.41;;;13.29;100.00
967;BME280;56108;48.730;9.304;2023-07-31T00:33:08;97600.34;;;13.28;100.00
967;BME280;56108;48.730;9.304;2023-07-31T00:35:17;97605.41;;;13.20;100.00
967;BME280;56108;48.730;9.304;2023-07-31T00:37:28;97602.88;;;13.19;100.00
967;BME280;56108;48.730;9.304;2023-07-31T00:39:36;97604.56;;;13.20;100.00
967;BME280;56108;48.730;9.304;2023-07-31T00:41:44;97612.25;;;13.24;100.00
967;BME280;56108;48.730;9.304;2023-07-31T00:43:56;97610.31;;;13.38;100.00
967;BME280;56108;48.730;9.304;2023-07-31T00:46:04;97612.63;;;13.31;100.00
967;BME280;56108;48.730;9.304;2023-07-31T00:48:12;97607.03;;;13.23;100.00
967;BME280;56108;48.730;9.304;2023-07-31T00:50:22;97603.72;;;13.19;100.00
967;BME280;56108;48.730;9.304;2023-07-31T00:52:33;97601.91;;;13.31;100.00
967;BME280;56108;48.730;9.304;2023-07-31T00:54:41;97595.34;;;13.35;100.00
967;BME280;56108;48.730;9.304;2023-07-31T00:56:50;97593.06;;;13.30;100.00
967;BME280;56108;48.730;9.304;2023-07-31T00:59:00;97585.53;;;13.24;100.00
967;BME280;56108;48.730;9.304;2023-07-31T01:01:10;97586.66;;;13.22;100.00
967;BME280;56108;48.730;9.304;2023-07-31T01:03:18;97582.25;;;13.21;100.00
967;BME280;56108;48.730;9.304;2023-07-31T01:05:36;97585.88;;;13.20;100.00
967;BME280;56108;48.730;9.304;2023-07-31T01:07:52;97589.03;;;13.14;100.00
967;BME280;56108;48.730;9.304;2023-07-31T01:10:07;97592.06;;;13.09;100.00
967;BME280;56108;48.730;9.304;2023-07-31T01:12:16;97581.75;;;13.04;100.00
967;BME280;56108;48.730;9.304;2023-07-31T01:14:25;97583.47;;;13.05;100.00
967;BME280;56108;48.730;9.304;2023-07-31T01:16:35;97585.53;;;13.02;100.00
967;BME280;56108;48.730;9.304;2023-07-31T01:18:43;97583.00;;;13.00;100.00
967;BME280;56108;48.730;9.304;2023-07-31T01:20:55;97593.53;;;13.02;100.00
967;BME280;56108;48.730;9.304;2023-07-31T01:23:26;97589.53;;;12.96;100.00
967;BME280;56108;48.730;9.304;2023-07-31T01:26:03;97598.28;;;12.98;100.00
967;BME280;56108;48.730;9.304;2023-07-31T01:28:14;97584.91;;;12.87;100.00
967;BME280;56108;48.730;9.304;2023-07-31T01:30:28;97572.19;;;12.79;100.00
967;BME280;56108;48.730;9.304;2023-07-31T01:32:43;97567.44;;;12.72;100.00
967;BME280;56108;48.730;9.304;2023-07-31T01:34:55;97559.28;;;12.62;100.00
967;BME280;56108;48.730;9.304;2023-07-31T01:37:06;97547.88;;;12.60;100.00
967;BME280;56108;48.730;9.304;2023-07-31T01:39:14;97550.06;;;12.55;100.00
967;BME280;56108;48.730;9.304;2023-07-31T01:41:25;97543.03;;;12.54;100.00
967;BME280;56108;48.730;9.304;2023-07-31T01:43:34;97547.41;;;12.55;100.00
967;BME280;56108;48.730;9.304;2023-07-31T01:45:42;97549.84;;;12.69;100.00
967;BME280;56108;48.730;9.304;2023-07-31T01:47:50;97544.59;;;12.68;100.00
967;BME280;56108;48.730;9.304;2023-07-31T01:49:58;97543.75;;;12.67;100.00
967;BME280;56108;48.730;9.304;2023-07-31T01:52:07;97550.44;;;12.62;100.00
967;BME280;56108;48.730;9.304;2023-07-31T01:54:15;97546.69;;;12.53;100.00
967;BME280;56108;48.730;9.304;2023-07-31T01:56:25;97539.13;;;12.47;100.00
967;BME280;56108;48.730;9.304;2023-07-31T01:58:33;97535.47;;;12.37;100.00
967;BME280;56108;48.730;9.304;2023-07-31T02:00:42;97535.72;;;12.34;100.00
967;BME280;56108;48.730;9.304;2023-07-31T02:02:51;97529.78;;;12.30;100.00
967;BME280;56108;48.730;9.304;2023-07-31T02:04:59;97526.25;;;12.30;100.00
967;BME280;56108;48.730;9.304;2023-07-31T02:07:07;97527.72;;;12.45;100.00
967;BME280;56108;48.730;9.304;2023-07-31T02:09:16;97522.75;;;12.51;100.00
967;BME280;56108;48.730;9.304;2023-07-31T02:11:28;97533.56;;;12.61;100.00
967;BME280;56108;48.730;9.304;2023-07-31T02:13:36;97536.50;;;12.69;100.00
967;BME280;56108;48.730;9.304;2023-07-31T02:15:41;97540.97;;;12.80;100.00
967;BME280;56108;48.730;9.304;2023-07-31T02:17:49;97541.09;;;12.90;100.00
967;BME280;56108;48.730;9.304;2023-07-31T02:19:57;97538.31;;;12.91;100.00
967;BME280;56108;48.730;9.304;2023-07-31T02:22:05;97531.13;;;12.92;100.00
967;BME280;56108;48.730;9.304;2023-07-31T02:24:14;97535.84;;;12.99;100.00
967;BME280;56108;48.730;9.304;2023-07-31T02:26:23;97528.44;;;13.03;100.00
967;BME280;56108;48.730;9.304;2023-07-31T02:28:34;97535.47;;;13.15;100.00
967;BME280;56108;48.730;9.304;2023-07-31T02:30:44;97533.78;;;13.14;100.00
967;BME280;56108;48.730;9.304;2023-07-31T02:32:55;97525.28;;;13.09;100.00
967;BME280;56108;48.730;9.304;2023-07-31T02:35:05;97529.66;;;13.10;100.00
967;BME280;56108;48.730;9.304;2023-07-31T02:37:13;97528.44;;;13.14;100.00
967;BME280;56108;48.730;9.304;2023-07-31T02:39:21;97532.09;;;13.13;100.00
967;BME280;56108;48.730;9.304;2023-07-31T02:41:29;97523.22;;;13.13;100.00
967;BME280;56108;48.730;9.304;2023-07-31T02:43:40;97528.09;;;13.07;100.00
967;BME280;56108;48.730;9.304;2023-07-31T02:45:51;97526.59;;;13.15;100.00
967;BME280;56108;48.730;9.304;2023-07-31T02:48:01;97533.78;;;13.14;100.00
967;BME280;56108;48.730;9.304;2023-07-31T02:50:10;97527.34;;;13.17;100.00
967;BME280;56108;48.730;9.304;2023-07-31T02:52:18;97536.22;;;13.17;100.00
967;BME280;56108;48.730;9.304;2023-07-31T02:54:26;97526.97;;;13.10;100.00
967;BME280;56108;48.730;9.304;2023-07-31T02:56:36;97526.38;;;13.06;100.00
967;BME280;56108;48.730;9.304;2023-07-31T02:58:47;97528.31;;;13.04;100.00
967;BME280;56108;48.730;9.304;2023-07-31T03:00:55;97520.44;;;13.03;100.00
967;BME280;56108;48.730;9.304;2023-07-31T03:03:03;97513.06;;;12.95;100.00
967;BME280;56108;48.730;9.304;2023-07-31T03:05:11;97510.13;;;12.87;100.00
967;BME280;56108;48.730;9.304;2023-07-31T03:07:22;97499.69;;;12.84;100.00
967;BME280;56108;48.730;9.304;2023-07-31T03:09:30;97493.41;;;12.85;100.00
967;BME280;56108;48.730;9.304;2023-07-31T03:11:38;97491.91;;;12.92;100.00
967;BME280;56108;48.730;9.304;2023-07-31T03:13:49;97498.59;;;12.87;100.00
967;BME280;56108;48.730;9.304;2023-07-31T03:15:57;97495.31;;;12.83;100.00
967;BME280;56108;48.730;9.304;2023-07-31T03:18:05;97496.31;;;12.82;100.00
967;BME280;56108;48.730;9.304;2023-07-31T03:20:14;97507.34;;;12.89;100.00
967;BME280;56108;48.730;9.304;2023-07-31T03:22:24;97497.75;;;12.86;100.00
967;BME280;56108;48.730;9.304;2023-07-31T03:24:32;97503.59;;;12.80;100.00
967;BME280;56108;48.730;9.304;2023-07-31T03:26:40;97505.53;;;12.67;100.00
967;BME280;56108;48.730;9.304;2023-07-31T03:28:51;97501.88;;;12.57;100.00
967;BME280;56108;48.730;9.304;2023-07-31T03:30:59;97494.59;;;12.47;100.00
967;BME280;56108;48.730;9.304;2023-07-31T03:33:07;97497.53;;;12.44;100.00
967;BME280;56108;48.730;9.304;2023-07-31T03:35:15;97484.06;;;12.35;100.00
967;BME280;56108;48.730;9.304;2023-07-31T03:37:23;97482.72;;;12.29;100.00
967;BME280;56108;48.730;9.304;2023-07-31T03:39:31;97474.56;;;12.19;100.00
967;BME280;56108;48.730;9.304;2023-07-31T03:41:39;97470.94;;;12.20;100.00
967;BME280;56108;48.730;9.304;2023-07-31T03:43:52;97469.00;;;12.11;100.00
967;BME280;56108;48.730;9.304;2023-07-31T03:46:01;97472.63;;;12.10;100.00
967;BME280;56108;48.730;9.304;2023-07-31T03:48:09;97466.91;;;12.04;100.00
967;BME280;56108;48.730;9.304;2023-07-31T03:50:17;97462.56;;;12.02;100.00
967;BME280;56108;48.730;9.304;2023-07-31T03:52:26;97467.75;;;12.04;100.00
967;BME280;56108;48.730;9.304;2023-07-31T03:54:34;97480.25;;;12.15;100.00
967;BME280;56108;48.730;9.304;2023-07-31T03:56:42;97484.53;;;12.17;100.00
967;BME280;56108;48.730;9.304;2023-07-31T03:58:53;97476.88;;;12.13;100.00
967;BME280;56108;48.730;9.304;2023-07-31T04:01:01;97475.78;;;12.15;100.00
967;BME280;56108;48.730;9.304;2023-07-31T04:03:09;97478.22;;;12.18;100.00
967;BME280;56108;48.730;9.304;2023-07-31T04:05:17;97482.22;;;12.24;100.00
967;BME280;56108;48.730;9.304;2023-07-31T04:07:26;97485.63;;;12.26;100.00
967;BME280;56108;48.730;9.304;2023-07-31T04:09:33;97495.72;;;12.45;100.00
967;BME280;56108;48.730;9.304;2023-07-31T04:11:41;97502.38;;;12.50;100.00
967;BME280;56108;48.730;9.304;2023-07-31T04:13:49;97507.13;;;12.58;100.00
967;BME280;56108;48.730;9.304;2023-07-31T04:16:00;97500.19;;;12.67;100.00
967;BME280;56108;48.730;9.304;2023-07-31T04:18:08;97507.34;;;12.77;100.00
967;BME280;56108;48.730;9.304;2023-07-31T04:20:16;97502.84;;;12.89;100.00
967;BME280;56108;48.730;9.304;2023-07-31T04:22:25;97508.41;;;13.09;100.00
967;BME280;56108;48.730;9.304;2023-07-31T04:24:33;97506.34;;;13.12;100.00
967;BME280;56108;48.730;9.304;2023-07-31T04:26:41;97504.50;;;13.13;100.00
967;BME280;56108;48.730;9.304;2023-07-31T04:28:49;97502.69;;;13.24;100.00
967;BME280;56108;48.730;9.304;2023-07-31T04:31:00;97509.34;;;13.19;100.00
967;BME280;56108;48.730;9.304;2023-07-31T04:33:08;97498.19;;;13.25;100.00
967;BME280;56108;48.730;9.304;2023-07-31T04:35:16;97504.44;;;13.57;100.00
967;BME280;56108;48.730;9.304;2023-07-31T04:37:24;97509.41;;;13.83;100.00
967;BME280;56108;48.730;9.304;2023-07-31T04:39:32;97505.31;;;13.79;100.00
967;BME280;56108;48.730;9.304;2023-07-31T04:41:40;97508.78;;;13.91;100.00
967;BME280;56108;48.730;9.304;2023-07-31T04:43:48;97511.06;;;14.16;100.00
967;BME280;56108;48.730;9.304;2023-07-31T04:45:57;97523.22;;;14.20;100.00
967;BME280;56108;48.730;9.304;2023-07-31T04:48:07;97513.34;;;14.42;100.00
967;BME280;56108;48.730;9.304;2023-07-31T04:50:15;97518.06;;;14.80;100.00
967;BME280;56108;48.730;9.304;2023-07-31T04:52:24;97528.91;;;15.28;100.00
967;BME280;56108;48.730;9.304;2023-07-31T04:54:34;97535.63;;;15.53;100.00
967;BME280;56108;48.730;9.304;2023-07-31T04:56:42;97533.41;;;15.78;100.00
967;BME280;56108;48.730;9.304;2023-07-31T04:58:50;97530.09;;;15.55;100.00
967;BME280;56108;48.730;9.304;2023-07-31T05:00:56;97519.78;;;15.40;100.00
967;BME280;56108;48.730;9.304;2023-07-31T05:03:07;97519.50;;;15.44;100.00
967;BME280;56108;48.730;9.304;2023-07-31T05:05:16;97514.75;;;15.07;100.00
967;BME280;56108;48.730;9.304;2023-07-31T05:07:24;97504.91;;;14.67;100.00
967;BME280;56108;48.730;9.304;2023-07-31T05:09:32;97504.69;;;14.90;100.00
967;BME280;56108;48.730;9.304;2023-07-31T05:11:37;97513.41;;;14.82;100.00
967;BME280;56108;48.730;9.304;2023-07-31T05:13:47;97514.75;;;15.07;100.00
967;BME280;56108;48.730;9.304;2023-07-31T05:15:56;97514.75;;;15.07;100.00
967;BME280;56108;48.730;9.304;2023-07-31T05:18:07;97521.28;;;15.24;100.00
967;BME280;56108;48.730;9.304;2023-07-31T05:20:15;97517.94;;;15.31;100.00
967;BME280;56108;48.730;9.304;2023-07-31T05:22:23;97512.56;;;14.81;100.00
967;BME280;56108;48.730;9.304;2023-07-31T05:24:32;97506.34;;;14.50;100.00
967;BME280;56108;48.730;9.304;2023-07-31T05:26:40;97508.69;;;15.05;100.00
967;BME280;56108;48.730;9.304;2023-07-31T05:28:48;97513.59;;;15.40;100.00
967;BME280;56108;48.730;9.304;2023-07-31T05:30:59;97507.34;;;15.39;100.00
967;BME280;56108;48.730;9.304;2023-07-31T05:33:10;97523.78;;;15.65;100.00
967;BME280;56108;48.730;9.304;2023-07-31T05:35:18;97524.63;;;15.76;100.00
967;BME280;56108;48.730;9.304;2023-07-31T05:37:30;97517.50;;;16.52;100.00
967;BME280;56108;48.730;9.304;2023-07-31T05:39:38;97516.44;;;16.82;100.00
967;BME280;56108;48.730;9.304;2023-07-31T05:41:46;97520.81;;;17.66;100.00
967;BME280;56108;48.730;9.304;2023-07-31T05:43:54;97518.88;;;18.56;95.25
967;BME280;56108;48.730;9.304;2023-07-31T05:46:02;97528.41;;;19.28;87.72
967;BME280;56108;48.730;9.304;2023-07-31T05:48:14;97549.53;;;20.40;75.59
967;BME280;56108;48.730;9.304;2023-07-31T05:50:22;97556.88;;;21.36;69.97
967;BME280;56108;48.730;9.304;2023-07-31T05:52:31;97582.41;;;22.35;63.77
967;BME280;56108;48.730;9.304;2023-07-31T05:54:39;97594.69;;;23.21;57.61
967;BME280;56108;48.730;9.304;2023-07-31T05:56:47;97610.16;;;24.52;52.68
967;BME280;56108;48.730;9.304;2023-07-31T05:58:55;97615.44;;;25.31;50.45
967;BME280;56108;48.730;9.304;2023-07-31T06:01:03;97618.91;;;25.81;47.74
967;BME280;56108;48.730;9.304;2023-07-31T06:03:13;97605.75;;;24.51;49.92
967;BME280;56108;48.730;9.304;2023-07-31T06:05:22;97577.63;;;23.12;53.39
967;BME280;56108;48.730;9.304;2023-07-31T06:07:31;97556.50;;;22.01;59.73
967;BME280;56108;48.730;9.304;2023-07-31T06:09:39;97554.78;;;21.46;62.89
967;BME280;56108;48.730;9.304;2023-07-31T06:11:47;97554.88;;;21.61;63.19
967;BME280;56108;48.730;9.304;2023-07-31T06:13:55;97550.63;;;21.67;63.77
967;BME280;56108;48.730;9.304;2023-07-31T06:16:03;97557.03;;;21.97;64.62
967;BME280;56108;48.730;9.304;2023-07-31T06:18:14;97577.75;;;23.34;56.54
967;BME280;56108;48.730;9.304;2023-07-31T06:20:23;97604.31;;;24.77;50.74
967;BME280;56108;48.730;9.304;2023-07-31T06:22:31;97614.06;;;25.76;47.44
967;BME280;56108;48.730;9.304;2023-07-31T06:24:39;97611.91;;;26.20;46.55
967;BME280;56108;48.730;9.304;2023-07-31T06:26:47;97609.53;;;25.97;46.15
967;BME280;56108;48.730;9.304;2023-07-31T06:28:58;97618.38;;;26.80;43.96
967;BME280;56108;48.730;9.304;2023-07-31T06:31:06;97607.34;;;26.34;44.75
967;BME280;56108;48.730;9.304;2023-07-31T06:33:17;97614.72;;;25.50;45.59
967;BME280;56108;48.730;9.304;2023-07-31T06:35:26;97601.47;;;24.06;49.55
967;BME280;56108;48.730;9.304;2023-07-31T06:37:34;97594.06;;;24.00;49.60
967;BME280;56108;48.730;9.304;2023-07-31T06:39:42;97600.75;;;24.76;48.17
967;BME280;56108;48.730;9.304;2023-07-31T06:41:50;97597.47;;;24.02;49.51
967;BME280;56108;48.730;9.304;2023-07-31T06:43:58;97599.84;;;24.11;48.63
967;BME280;56108;48.730;9.304;2023-07-31T06:46:06;97588.78;;;23.47;51.49
967;BME280;56108;48.730;9.304;2023-07-31T06:48:17;97595.63;;;23.87;50.87
967;BME280;56108;48.730;9.304;2023-07-31T06:50:25;97598.91;;;23.38;50.98
967;BME280;56108;48.730;9.304;2023-07-31T06:52:33;97591.66;;;24.26;50.19
967;BME280;56108;48.730;9.304;2023-07-31T06:54:42;97596.22;;;24.40;49.32
967;BME280;56108;48.730;9.304;2023-07-31T06:56:50;97601.03;;;25.37;47.06
967;BME280;56108;48.730;9.304;2023-07-31T06:58:58;97609.25;;;26.40;45.13
967;BME280;56108;48.730;9.304;2023-07-31T07:01:06;97619.72;;;26.36;43.84
967;BME280;56108;48.730;9.304;2023-07-31T07:03:18;97635.41;;;27.35;41.85
967;BME280;56108;48.730;9.304;2023-07-31T07:05:26;97635.19;;;27.23;41.45
967;BME280;56108;48.730;9.304;2023-07-31T07:07:36;97640.31;;;27.98;39.44
967;BME280;56108;48.730;9.304;2023-07-31T07:09:41;97644.84;;;28.69;38.71
967;BME280;56108;48.730;9.304;2023-07-31T07:11:49;97651.28;;;29.12;38.31
967;BME280;56108;48.730;9.304;2023-07-31T07:13:57;97653.25;;;28.74;37.18
967;BME280;56108;48.730;9.304;2023-07-31T07:16:05;97642.69;;;28.32;38.04
967;BME280;56108;48.730;9.304;2023-07-31T07:18:18;97634.16;;;29.17;38.08
967;BME280;56108;48.730;9.304;2023-07-31T07:20:26;97639.72;;;29.35;37.60
967;BME280;56108;48.730;9.304;2023-07-31T07:22:34;97648.47;;;29.44;36.82
967;BME280;56108;48.730;9.304;2023-07-31T07:24:42;97652.13;;;30.36;34.91
967;BME280;56108;48.730;9.304;2023-07-31T07:26:51;97650.44;;;31.84;33.36
967;BME280;56108;48.730;9.304;2023-07-31T07:28:59;97650.19;;;30.55;33.64
967;BME280;56108;48.730;9.304;2023-07-31T07:31:08;97651.69;;;29.41;36.55
967;BME280;56108;48.730;9.304;2023-07-31T07:33:18;97637.16;;;28.52;38.12
967;BME280;56108;48.730;9.304;2023-07-31T07:35:27;97621.06;;;26.60;39.78
967;BME280;56108;48.730;9.304;2023-07-31T07:37:35;97600.97;;;25.03;43.91
967;BME280;56108;48.730;9.304;2023-07-31T07:39:44;97592.13;;;24.30;45.79
967;BME280;56108;48.730;9.304;2023-07-31T07:41:51;97577.44;;;23.43;48.64
967;BME280;56108;48.730;9.304;2023-07-31T07:44:00;97563.88;;;23.14;50.98
967;BME280;56108;48.730;9.304;2023-07-31T07:46:08;97548.16;;;22.57;53.27
967;BME280;56108;48.730;9.304;2023-07-31T07:48:19;97546.38;;;22.26;53.80
967;BME280;56108;48.730;9.304;2023-07-31T07:50:27;97540.66;;;21.90;54.94
967;BME280;56108;48.730;9.304;2023-07-31T07:52:36;97542.47;;;21.98;56.29
967;BME280;56108;48.730;9.304;2023-07-31T07:54:44;97537.41;;;22.26;55.95
967;BME280;56108;48.730;9.304;2023-07-31T07:56:50;97538.38;;;21.79;58.22
967;BME280;56108;48.730;9.304;2023-07-31T07:58:58;97534.91;;;21.62;58.28
967;BME280;56108;48.730;9.304;2023-07-31T08:01:06;97532.09;;;21.47;59.64
967;BME280;56108;48.730;9.304;2023-07-31T08:03:14;97536.84;;;21.76;59.17
967;BME280;56108;48.730;9.304;2023-07-31T08:05:25;97528.53;;;22.32;58.59
967;BME280;56108;48.730;9.304;2023-07-31T08:07:37;97543.16;;;22.83;55.04
967;BME280;56108;48.730;9.304;2023-07-31T08:09:45;97550.75;;;23.17;54.38
967;BME280;56108;48.730;9.304;2023-07-31T08:11:53;97542.75;;;22.72;54.31
967;BME280;56108;48.730;9.304;2023-07-31T08:14:02;97546.66;;;23.66;52.86
967;BME280;56108;48.730;9.304;2023-07-31T08:16:11;97541.69;;;23.40;52.52
967;BME280;56108;48.730;9.304;2023-07-31T08:18:19;97537.66;;;22.91;53.47
967;BME280;56108;48.730;9.304;2023-07-31T08:20:30;97535.00;;;22.83;52.27
967;BME280;56108;48.730;9.304;2023-07-31T08:22:38;97537.97;;;22.74;53.81
967;BME280;56108;48.730;9.304;2023-07-31T08:24:46;97538.50;;;22.54;52.96
967;BME280;56108;48.730;9.304;2023-07-31T08:26:54;97529.75;;;22.67;53.35
967;BME280;56108;48.730;9.304;2023-07-31T08:29:02;97526.22;;;22.81;52.59
967;BME280;56108;48.730;9.304;2023-07-31T08:31:10;97532.22;;;22.54;52.85
967;BME280;56108;48.730;9.304;2023-07-31T08:33:19;97538.34;;;23.23;52.39
967;BME280;56108;48.730;9.304;2023-07-31T08:35:29;97546.81;;;24.01;50.70
967;BME280;56108;48.730;9.304;2023-07-31T08:37:38;97548.00;;;24.13;50.33
967;BME280;56108;48.730;9.304;2023-07-31T08:39:46;97538.06;;;23.84;50.02
967;BME280;56108;48.730;9.304;2023-07-31T08:41:58;97540.38;;;23.51;50.41
967;BME280;56108;48.730;9.304;2023-07-31T08:44:06;97534.53;;;23.68;49.99
967;BME280;56108;48.730;9.304;2023-07-31T08:46:15;97529.50;;;23.65;49.80
967;BME280;56108;48.730;9.304;2023-07-31T08:48:23;97531.72;;;23.62;50.91
967;BME280;56108;48.730;9.304;2023-07-31T08:50:35;97527.84;;;23.35;49.84
967;BME280;56108;48.730;9.304;2023-07-31T08:52:45;97514.19;;;23.13;51.35
967;BME280;56108;48.730;9.304;2023-07-31T08:54:53;97503.84;;;23.38;52.25
967;BME280;56108;48.730;9.304;2023-07-31T08:57:01;97504.38;;;23.49;51.69
967;BME280;56108;48.730;9.304;2023-07-31T08:59:10;97514.16;;;23.28;51.76
967;BME280;56108;48.730;9.304;2023-07-31T09:01:19;97515.22;;;22.98;53.42
967;BME280;56108;48.730;9.304;2023-07-31T09:03:28;97519.59;;;22.99;50.41
967;BME280;56108;48.730;9.304;2023-07-31T09:05:45;97515.19;;;23.27;49.84
967;BME280;56108;48.730;9.304;2023-07-31T09:07:55;97521.66;;;23.26;49.14
967;BME280;56108;48.730;9.304;2023-07-31T09:10:05;97509.03;;;24.06;48.28
967;BME280;56108;48.730;9.304;2023-07-31T09:12:13;97518.16;;;23.98;47.58
967;BME280;56108;48.730;9.304;2023-07-31T09:14:21;97521.66;;;24.84;47.30
967;BME280;56108;48.730;9.304;2023-07-31T09:16:30;97515.03;;;25.69;44.43
967;BME280;56108;48.730;9.304;2023-07-31T09:18:53;97527.16;;;26.35;41.83
967;BME280;56108;48.730;9.304;2023-07-31T09:21:06;97537.34;;;27.65;40.97
967;BME280;56108;48.730;9.304;2023-07-31T09:23:14;97535.72;;;27.44;40.96
967;BME280;56108;48.730;9.304;2023-07-31T09:25:23;97544.06;;;29.02;38.50
967;BME280;56108;48.730;9.304;2023-07-31T09:27:45;97561.78;;;29.86;35.32
967;BME280;56108;48.730;9.304;2023-07-31T09:29:58;97569.38;;;29.84;35.38
967;BME280;56108;48.730;9.304;2023-07-31T09:32:15;97558.41;;;28.48;38.69
967;BME280;56108;48.730;9.304;2023-07-31T09:34:29;97549.16;;;27.46;39.37
967;BME280;56108;48.730;9.304;2023-07-31T09:36:45;97541.63;;;26.28;40.33
967;BME280;56108;48.730;9.304;2023-07-31T09:38:54;97520.38;;;26.04;43.44
967;BME280;56108;48.730;9.304;2023-07-31T09:40:59;97516.88;;;26.10;42.35
967;BME280;56108;48.730;9.304;2023-07-31T09:43:12;97518.88;;;25.40;43.74
967;BME280;56108;48.730;9.304;2023-07-31T09:45:34;97522.16;;;26.51;40.77
967;BME280;56108;48.730;9.304;2023-07-31T09:47:46;97514.16;;;27.81;40.46
967;BME280;56108;48.730;9.304;2023-07-31T09:49:55;97524.47;;;26.88;39.30
967;BME280;56108;48.730;9.304;2023-07-31T09:52:11;97508.47;;;26.25;41.39
967;BME280;56108;48.730;9.304;2023-07-31T09:54:20;97501.13;;;26.92;42.00
967;BME280;56108;48.730;9.304;2023-07-31T09:56:28;97496.75;;;26.31;42.94
967;BME280;56108;48.730;9.304;2023-07-31T09:58:37;97491.25;;;26.18;43.41
967;BME280;56108;48.730;9.304;2023-07-31T10:00:46;97481.22;;;26.71;43.67
967;BME280;56108;48.730;9.304;2023-07-31T10:02:54;97481.00;;;26.46;41.96
967;BME280;56108;48.730;9.304;2023-07-31T10:05:07;97489.16;;;27.06;40.40
967;BME280;56108;48.730;9.304;2023-07-31T10:07:18;97489.34;;;27.76;41.51
967;BME280;56108;48.730;9.304;2023-07-31T10:09:31;97480.56;;;26.83;41.57
967;BME280;56108;48.730;9.304;2023-07-31T10:11:43;97467.75;;;26.30;42.13
967;BME280;56108;48.730;9.304;2023-07-31T10:13:56;97456.34;;;25.19;43.90
967;BME280;56108;48.730;9.304;2023-07-31T10:16:05;97454.47;;;25.26;44.65
967;BME280;56108;48.730;9.304;2023-07-31T10:18:13;97447.34;;;25.18;45.54
967;BME280;56108;48.730;9.304;2023-07-31T10:20:23;97440.88;;;24.91;46.65
967;BME280;56108;48.730;9.304;2023-07-31T10:22:36;97429.03;;;24.71;46.72
967;BME280;56108;48.730;9.304;2023-07-31T10:24:45;97438.56;;;24.54;46.44
967;BME280;56108;48.730;9.304;2023-07-31T10:26:52;97438.75;;;24.87;47.09
967;BME280;56108;48.730;9.304;2023-07-31T10:29:01;97443.28;;;25.56;45.44
967;BME280;56108;48.730;9.304;2023-07-31T10:31:09;97453.69;;;26.40;42.24
967;BME280;56108;48.730;9.304;2023-07-31T10:33:18;97441.13;;;26.59;42.05
967;BME280;56108;48.730;9.304;2023-07-31T10:35:27;97447.53;;;27.17;40.52
967;BME280;56108;48.730;9.304;2023-07-31T10:37:42;97441.91;;;27.57;42.78
967;BME280;56108;48.730;9.304;2023-07-31T10:39:58;97447.50;;;27.30;42.00
967;BME280;56108;48.730;9.304;2023-07-31T10:42:11;97443.44;;;28.16;38.97
967;BME280;56108;48.730;9.304;2023-07-31T10:44:22;97442.25;;;28.05;37.93
967;BME280;56108;48.730;9.304;2023-07-31T10:46:30;97440.22;;;28.26;38.61
967;BME280;56108;48.730;9.304;2023-07-31T10:48:40;97448.34;;;27.76;39.36
967;BME280;56108;48.730;9.304;2023-07-31T10:50:49;97432.22;;;26.96;40.84
967;BME280;56108;48.730;9.304;2023-07-31T10:53:03;97429.88;;;27.13;41.24
967;BME280;56108;48.730;9.304;2023-07-31T10:55:30;97445.94;;;26.57;41.54
967;BME280;56108;48.730;9.304;2023-07-31T10:57:38;97434.19;;;26.23;42.82
967;BME280;56108;48.730;9.304;2023-07-31T10:59:44;97429.78;;;26.35;42.67
967;BME280;56108;48.730;9.304;2023-07-31T11:01:53;97411.09;;;25.86;44.57
967;BME280;56108;48.730;9.304;2023-07-31T11:04:11;97416.56;;;26.19;44.17
967;BME280;56108;48.730;9.304;2023-07-31T11:06:19;97412.94;;;26.85;43.12
967;BME280;56108;48.730;9.304;2023-07-31T11:08:30;97413.50;;;28.21;41.11
967;BME280;56108;48.730;9.304;2023-07-31T11:10:39;97411.19;;;28.50;40.18
967;BME280;56108;48.730;9.304;2023-07-31T11:12:45;97419.75;;;27.65;40.32
967;BME280;56108;48.730;9.304;2023-07-31T11:14:54;97412.41;;;27.27;41.33
967;BME280;56108;48.730;9.304;2023-07-31T11:17:06;97411.28;;;26.57;41.17
967;BME280;56108;48.730;9.304;2023-07-31T11:19:14;97409.00;;;26.61;43.09
967;BME280;56108;48.730;9.304;2023-07-31T11:21:24;97405.59;;;26.85;42.28
967;BME280;56108;48.730;9.304;2023-07-31T11:23:36;97406.81;;;26.96;43.22
967;BME280;56108;48.730;9.304;2023-07-31T11:25:44;97404.16;;;26.56;41.73
967;BME280;56108;48.730;9.304;2023-07-31T11:27:53;97401.88;;;26.26;42.37
967;BME280;56108;48.730;9.304;2023-07-31T11:30:01;97403.13;;;26.37;43.59
967;BME280;56108;48.730;9.304;2023-07-31T11:32:16;97398.44;;;25.65;43.92
967;BME280;56108;48.730;9.304;2023-07-31T11:34:25;97399.22;;;25.45;44.51
967;BME280;56108;48.730;9.304;2023-07-31T11:36:35;97386.19;;;24.80;45.05
967;BME280;56108;48.730;9.304;2023-07-31T11:38:46;97394.84;;;24.62;47.46
967;BME280;56108;48.730;9.304;2023-07-31T11:40:57;97390.94;;;24.71;46.32